Latest Weather Observations for Darwin Airport

IDD60801

Issued at 9:01 pm CST Monday 6 July 2020 (issued every 10 minutes, with the page automatically refreshed every 10 minutes)

About weather observations | Map of weather stations | Latest weather observations for NT | Other Formats
Station Details ID: 014015 Name: DARWIN AIRPORT Lat: -12.42 Lon: 130.89 Height: 30.4 m
Data from the previous 72 hours. | See also: Recent months at Darwin Airport
Date/Time
CST
Temp
°C
App
Temp
°C
Dew
Point
°C
Rel
Hum
%
Delta-T
°C
Wind Press
QNH
hPa
Press
MSL
hPa
Rain since
9am
mm
Dir  Spd
km/h
Gust
km/h
Spd
kts
Gust
kts
06/08:30pm 26.3 27.6 17.2 57 5.7 NE 6 7 3 4 1014.5 1014.3 0.0
06/08:00pm 26.6 28.0 17.3 56 5.8 NNE 6 9 3 5 1014.2 1014.0 0.0
06/07:30pm 26.9 28.3 17.3 55 6.0 N 6 9 3 5 1014.1 1013.9 0.0
06/07:00pm 27.0 28.1 17.1 54 6.2 N 7 9 4 5 1013.6 1013.4 0.0
06/06:30pm 27.1 27.9 16.4 52 6.6 NNW 7 11 4 6 1013.3 1013.1 0.0
06/06:00pm 27.5 27.2 16.4 50 6.9 NNW 13 15 7 8 1013.2 1013.0 0.0
06/05:30pm 27.7 26.6 16.4 50 7.0 NNW 17 20 9 11 1012.9 1012.7 0.0
06/05:00pm 28.6 27.0 15.0 43 8.3 NNW 17 20 9 11 1012.6 1012.4 0.0
06/04:30pm 29.2 27.0 13.2 37 9.5 NNW 17 22 9 12 1012.4 1012.2 0.0
06/04:00pm 31.1 28.6 8.1 24 12.7 NNE 11 17 6 9 1012.2 1012.0 0.0
06/03:30pm 31.3 28.8 8.2 23 12.8 ESE 11 20 6 11 1012.2 1012.0 0.0
06/03:00pm 30.7 26.6 7.7 23 12.6 ESE 19 30 10 16 1012.4 1012.2 0.0
06/02:30pm 31.0 26.9 7.9 23 12.7 ESE 19 30 10 16 1012.6 1012.4 0.0
06/02:00pm 30.4 26.9 8.8 26 12.0 ESE 17 33 9 18 1012.9 1012.7 0.0
06/01:30pm 29.5 25.4 8.7 27 11.5 ESE 20 32 11 17 1013.2 1013.0 0.0
06/01:00pm 30.1 25.7 8.9 26 11.8 ESE 22 35 12 19 1013.6 1013.4 0.0
06/12:30pm 28.6 23.7 8.6 28 11.0 ESE 24 32 13 17 1014.1 1013.9 0.0
06/12:00pm 28.7 24.5 8.4 28 11.1 SE 20 30 11 16 1014.5 1014.3 0.0
06/11:30am 27.4 22.1 8.5 30 10.3 ESE 26 39 14 21 1015.2 1015.0 0.0
06/11:00am 27.2 21.8 9.5 33 9.8 ESE 28 35 15 19 1015.4 1015.2 0.0
06/10:30am 26.0 20.7 9.7 35 9.0 SE 28 35 15 19 1015.7 1015.5 0.0
06/10:00am 25.7 20.7 9.5 36 8.9 SE 26 37 14 20 1015.9 1015.7 0.0
06/09:30am 24.3 18.9 9.4 38 8.1 ESE 28 39 15 21 1016.1 1015.9 0.0
06/09:00am 23.2 18.7 10.0 43 7.2 SE 24 33 13 18 1016.2 1016.0 0.0
06/08:30am 21.8 17.3 10.0 47 6.4 SE 24 35 13 19 1016.1 1015.9 0.0
06/08:00am 20.8 16.5 9.4 48 6.1 SE 22 32 12 17 1015.7 1015.5 0.0
06/07:30am 19.9 16.1 8.9 49 5.8 SE 19 24 10 13 1015.4 1015.2 0.0
06/07:00am 19.6 15.9 8.0 47 6.0 SE 17 22 9 12 1015.1 1014.9 0.0
06/06:30am 20.0 16.9 7.3 43 6.5 SE 13 17 7 9 1014.8 1014.6 0.0
06/06:00am 20.5 16.9 6.7 40 7.0 SE 15 19 8 10 1014.7 1014.5 0.0
06/05:30am 21.1 16.7 6.5 38 7.4 ESE 19 24 10 13 1014.8 1014.6 0.0
06/05:00am 21.0 16.8 5.5 36 7.7 ESE 17 20 9 11 1014.8 1014.6 0.0
06/04:30am 21.1 17.4 4.5 33 8.1 ESE 13 17 7 9 1014.8 1014.6 0.0
06/04:00am 20.8 16.8 3.0 31 8.4 SE 13 19 7 10 1014.9 1014.7 0.0
06/03:30am 21.1 16.6 2.2 28 8.8 SE 15 20 8 11 1015.1 1014.9 0.0
06/03:00am 21.1 16.1 1.5 27 9.0 SE 17 24 9 13 1015.2 1015.0 0.0
06/02:30am 21.4 16.3 1.0 26 9.3 SE 17 26 9 14 1015.3 1015.1 0.0
06/02:00am 21.4 16.4 1.4 26 9.2 SE 17 24 9 13 1015.4 1015.2 0.0
06/01:30am 21.7 15.8 1.6 26 9.3 SE 22 32 12 17 1015.5 1015.3 0.0
06/01:00am 21.9 16.7 2.3 27 9.2 SE 19 24 10 13 1015.5 1015.3 0.0
06/12:30am 21.9 17.7 3.6 30 8.8 SE 15 19 8 10 1015.4 1015.2 0.0
06/12:00am 22.1 18.2 5.5 34 8.3 SE 15 17 8 9 1015.3 1015.1 0.0
 
Date/Time
CST
Temp
°C
App
Temp
°C
Dew
Point
°C
Rel
Hum
%
Delta-T
°C
Wind Press
QNH
hPa
Press
MSL
hPa
Rain since
9am
mm
Dir  Spd
km/h
Gust
km/h
Spd
kts
Gust
kts
05/11:30pm 22.6 19.1 5.4 32 8.6 SE 13 19 7 10 1015.2 1015.0 0.0
05/11:00pm 23.1 19.7 5.7 32 8.8 SSE 13 17 7 9 1015.2 1015.0 0.0
05/10:30pm 23.8 20.0 5.7 31 9.2 SSE 15 19 8 10 1015.1 1014.9 0.0
05/10:00pm 24.3 19.6 5.0 28 9.7 SE 19 24 10 13 1014.8 1014.6 0.0
05/09:30pm 24.9 21.5 5.7 29 9.8 SSE 13 19 7 10 1014.6 1014.4 0.0
05/09:00pm 25.1 21.7 6.1 29 9.8 SSE 13 17 7 9 1014.4 1014.2 0.0
05/08:30pm 25.6 21.3 5.4 27 10.3 SSE 17 22 9 12 1014.1 1013.9 0.0
05/08:00pm 25.9 23.1 6.9 29 10.0 SE 11 15 6 8 1014.0 1013.8 0.0
05/07:30pm 26.1 24.0 8.3 32 9.6 SE 9 11 5 6 1013.6 1013.4 0.0
05/07:00pm 26.4 24.8 8.8 33 9.6 SE 7 9 4 5 1013.4 1013.2 0.0
05/06:30pm 27.5 25.8 8.4 30 10.4 ESE 7 13 4 7 1013.1 1012.9 0.0
05/06:00pm 28.3 24.7 6.9 26 11.4 SE 15 19 8 10 1012.6 1012.4 0.0
05/05:30pm 29.0 26.4 7.6 26 11.6 SE 11 15 6 8 1012.3 1012.1 0.0
05/05:00pm 29.0 25.6 9.0 28 11.1 E 17 22 9 12 1012.0 1011.8 0.0
05/04:30pm 29.4 26.1 9.6 29 11.1 ENE 17 26 9 14 1011.9 1011.7 0.0
05/04:00pm 29.7 26.5 8.5 26 11.7 SE 15 26 8 14 1011.9 1011.7 0.0
05/03:30pm 29.3 25.2 8.6 27 11.4 ESE 20 28 11 15 1012.1 1011.9 0.0
05/03:00pm 29.2 25.3 9.3 29 11.1 E 20 33 11 18 1012.3 1012.1 0.0
05/02:30pm 29.1 25.1 8.9 28 11.2 E 20 32 11 17 1012.6 1012.4 0.0
05/02:00pm 28.9 24.5 9.1 29 11.0 ESE 22 37 12 20 1013.1 1012.9 0.0
05/01:30pm 28.4 23.9 10.1 32 10.3 ESE 24 35 13 19 1013.6 1013.4 0.0
05/01:00pm 28.3 24.0 9.4 30 10.5 SE 22 35 12 19 1014.0 1013.8 0.0
05/12:30pm 27.7 22.9 9.0 31 10.3 SE 24 35 13 19 1014.4 1014.2 0.0
05/12:00pm 27.7 23.5 9.7 32 10.0 SE 22 32 12 17 1014.8 1014.6 0.0
05/11:30am 26.3 20.0 9.1 33 9.4 ESE 32 46 17 25 1015.4 1015.2 0.0
05/11:00am 26.0 20.7 8.6 33 9.4 SE 26 33 14 18 1015.9 1015.7 0.0
05/10:30am 25.1 19.3 8.0 33 9.1 SE 28 37 15 20 1016.3 1016.1 0.0
05/10:00am 24.7 18.6 8.2 35 8.8 SE 30 41 16 22 1016.4 1016.2 0.0
05/09:30am 23.6 19.2 8.9 39 7.9 SE 22 33 12 18 1016.4 1016.2 0.0
05/09:00am 23.0 19.1 9.5 42 7.3 SSE 20 30 11 16 1016.3 1016.1 0.0
05/08:30am 21.7 19.1 10.8 50 6.0 SE 15 20 8 11 1016.0 1015.8 0.0
05/08:00am 20.8 18.6 10.7 52 5.5 SE 13 19 7 10 1015.7 1015.5 0.0
05/07:30am 20.2 18.4 10.9 55 5.1 SE 11 15 6 8 1015.5 1015.3 0.0
05/07:00am 20.6 18.3 10.3 51 5.6 SE 13 17 7 9 1015.2 1015.0 0.0
05/06:30am 21.1 18.8 10.5 50 5.8 ESE 13 19 7 10 1015.0 1014.8 0.0
05/06:00am 21.6 18.5 10.4 49 6.1 ESE 17 22 9 12 1014.8 1014.6 0.0
05/05:30am 22.1 19.1 10.6 48 6.3 ESE 17 20 9 11 1014.5 1014.3 0.0
05/05:00am 22.5 18.1 10.3 46 6.7 E 24 33 13 18 1014.1 1013.9 0.0
05/04:30am 22.8 17.9 10.0 44 7.0 E 26 39 14 21 1013.8 1013.6 0.0
05/04:00am 23.2 18.1 10.5 44 7.0 E 28 37 15 20 1014.2 1014.0 0.0
05/03:30am 23.2 18.0 10.3 44 7.1 E 28 37 15 20 1014.2 1014.0 0.0
05/03:00am 23.2 18.4 10.3 44 7.1 E 26 37 14 20 1014.7 1014.5 0.0
05/02:30am 23.6 19.1 9.9 42 7.5 ESE 24 33 13 18 1014.9 1014.7 0.0
05/02:00am 24.0 18.8 9.0 38 8.1 E 26 32 14 17 1015.1 1014.9 0.0
05/01:30am 24.6 19.5 7.8 34 8.9 ESE 24 32 13 17 1015.2 1015.0 0.0
05/01:00am 24.9 20.5 7.2 32 9.3 ESE 20 28 11 15 1015.2 1015.0 0.0
05/12:30am 25.1 20.5 6.7 30 9.6 ESE 20 30 11 16 1015.3 1015.1 0.0
05/12:00am 24.8 20.8 6.7 31 9.4 SE 17 20 9 11 1015.4 1015.2 0.0
 
Date/Time
CST
Temp
°C
App
Temp
°C
Dew
Point
°C
Rel
Hum
%
Delta-T
°C
Wind Press
QNH
hPa
Press
MSL
hPa
Rain since
9am
mm
Dir  Spd
km/h
Gust
km/h
Spd
kts
Gust
kts
04/11:30pm 24.3 21.3 7.9 35 8.7 SE 13 17 7 9 1015.4 1015.2 0.0
04/11:00pm 25.1 21.5 6.9 31 9.5 SE 15 20 8 11 1015.5 1015.3 0.0
04/10:30pm 25.1 22.1 7.5 32 9.3 SE 13 17 7 9 1015.4 1015.2 0.0
04/10:00pm 25.6 21.8 7.7 32 9.5 SE 17 20 9 11 1015.4 1015.2 0.0
04/09:30pm 26.0 22.7 8.1 32 9.6 SE 15 19 8 10 1015.2 1015.0 0.0
04/09:00pm 26.3 23.1 8.6 32 9.6 SE 15 19 8 10 1015.1 1014.9 0.0
04/08:30pm 26.7 24.5 9.2 33 9.6 SE 11 15 6 8 1014.7 1014.5 0.0
04/08:00pm 27.5 25.1 8.6 30 10.3 SE 11 15 6 8 1014.3 1014.1 0.0
04/07:30pm 28.3 25.5 8.6 29 10.8 ESE 13 17 7 9 1013.9 1013.7 0.0
04/07:00pm 29.0 26.8 9.2 29 11.0 SE 11 13 6 7 1013.6 1013.4 0.0
04/06:30pm 29.9 27.0 9.6 28 11.4 SE 15 19 8 10 1013.2 1013.0 0.0
04/06:00pm 30.9 27.5 9.1 25 12.2 ESE 17 24 9 13 1012.9 1012.7 0.0
04/05:30pm 31.4 27.6 8.9 24 12.6 ESE 19 28 10 15 1012.7 1012.5 0.0
04/05:00pm 31.5 27.1 9.1 25 12.6 ESE 22 33 12 18 1012.6 1012.4 0.0
04/04:30pm 31.6 26.8 8.7 24 12.8 ESE 24 33 13 18 1012.6 1012.4 0.0
04/04:00pm 31.5 26.0 9.3 25 12.5 E 28 43 15 23 1012.7 1012.5 0.0
04/03:30pm 31.8 27.2 9.8 25 12.5 ESE 24 37 13 20 1013.0 1012.8 0.0
04/03:00pm 31.2 26.3 9.9 26 12.1 ESE 26 41 14 22 1013.2 1013.0 0.0
04/02:30pm 31.1 25.5 10.3 27 11.9 E 30 39 16 21 1013.5 1013.3 0.0
04/02:20pm 31.2 26.1 10.7 28 11.8 ESE 28 46 15 25 1013.7 1013.5 0.0
04/02:00pm 30.9 24.6 11.0 29 11.5 ESE 35 48 19 26 1013.9 1013.7 0.0
04/01:30pm 31.2 25.4 11.4 29 11.5 ESE 33 44 18 24 1014.4 1014.2 0.0
04/01:00pm 30.5 25.8 12.1 32 10.8 E 28 52 15 28 1014.9 1014.7 0.0
04/12:55pm 31.1 26.2 12.5 32 11.0 ESE 30 52 16 28 1014.9 1014.7 0.0
04/12:30pm 30.2 24.7 12.3 33 10.5 ESE 33 50 18 27 1015.4 1015.2 0.0
04/12:00pm 30.1 23.1 12.4 33 10.4 ESE 41 54 22 29 1015.9 1015.7 0.0
04/11:30am 29.3 22.7 12.6 35 9.8 E 39 56 21 30 1016.3 1016.1 0.0
04/11:06am 29.1 23.7 12.8 36 9.6 ESE 33 54 18 29 1016.6 1016.4 0.0
04/11:00am 28.9 23.8 13.2 38 9.3 ESE 32 39 17 21 1016.6 1016.4 0.0
04/10:33am 28.7 23.2 14.7 42 8.5 ESE 37 56 20 30 1016.6 1016.4 0.0
04/10:30am 28.8 22.4 14.4 41 8.7 E 41 56 22 30 1016.6 1016.4 0.0
04/10:17am 28.4 22.8 14.5 42 8.4 ESE 37 56 20 30 1016.7 1016.5 0.0
04/10:00am 28.0 23.1 14.3 43 8.2 ESE 33 43 18 23 1016.7 1016.5 0.0
04/09:30am 27.0 23.1 14.5 46 7.5 ESE 28 44 15 24 1016.7 1016.5 0.0
04/09:00am 26.3 23.7 14.8 49 6.9 ESE 22 32 12 17 1016.7 1016.5 0.0
04/08:30am 25.5 23.6 15.2 53 6.2 ESE 19 26 10 14 1016.3 1016.1 0.0
04/08:00am 24.5 22.7 15.6 57 5.4 E 19 24 10 13 1015.9 1015.7 0.0
04/07:30am 23.8 22.5 15.7 60 4.9 E 17 22 9 12 1015.6 1015.4 0.0
04/07:00am 23.7 22.8 15.9 61 4.7 E 15 20 8 11 1015.4 1015.2 0.0
04/06:30am 23.7 22.9 16.1 62 4.6 ESE 15 20 8 11 1015.3 1015.1 0.0
04/06:00am 23.3 23.3 17.1 68 3.8 ESE 13 17 7 9 1015.3 1015.1 0.0
04/05:30am 23.3 23.7 18.2 73 3.2 ESE 13 15 7 8 1015.2 1015.0 0.0
04/05:00am 23.0 24.6 19.2 79 2.4 ESE 9 11 5 6 1014.9 1014.7 0.0
04/04:30am 23.0 24.8 19.6 81 2.2 ESE 9 11 5 6 1014.8 1014.6 0.0
04/04:00am 23.3 25.3 20.0 82 2.1 SE 9 11 5 6 1014.8 1014.6 0.0
04/03:30am 23.6 25.6 20.0 80 2.3 SE 9 11 5 6 1015.0 1014.8 0.0
04/03:00am 23.7 25.8 20.1 80 2.3 SSE 9 11 5 6 1015.1 1014.9 0.0
04/02:30am 23.9 26.1 20.4 81 2.3 SSE 9 11 5 6 1015.4 1015.2 0.0
04/02:00am 24.3 26.9 20.1 77 2.7 SE 6 7 3 4 1015.8 1015.6 0.0
04/01:30am 24.6 27.0 20.1 76 2.9 SSE 7 9 4 5 1015.8 1015.6 0.0
04/01:00am 24.7 27.5 20.4 77 2.8 SE 6 7 3 4 1015.9 1015.7 0.0
04/12:30am 24.9 27.5 20.5 76 2.9 SSE 7 9 4 5 1015.9 1015.7 0.0
04/12:00am 24.9 27.7 20.8 78 2.7 SSE 7 9 4 5 1016.0 1015.8 0.0
 
Date/Time
CST
Temp
°C
App
Temp
°C
Dew
Point
°C
Rel
Hum
%
Delta-T
°C
Wind Press
QNH
hPa
Press
MSL
hPa
Rain since
9am
mm
Dir  Spd
km/h
Gust
km/h
Spd
kts
Gust
kts
03/11:30pm 25.2 28.0 20.5 75 3.1 SSE 6 7 3 4 1015.7 1015.5 0.0
03/11:00pm 25.7 28.7 20.8 74 3.2 S 6 9 3 5 1015.6 1015.4 0.0
03/10:30pm 26.5 29.4 20.6 70 3.9 SSE 6 7 3 4 1015.6 1015.4 0.0
03/10:00pm 26.2 28.3 20.2 69 3.9 S 9 15 5 8 1015.6 1015.4 0.0
03/09:30pm 25.7 28.5 20.5 73 3.4 NE 6 11 3 6 1015.3 1015.1 0.0

Other formats

Comma delimited format used in spreadsheet applications
http://www.bom.gov.au/fwo/IDD60801/IDD60801.94120.axf

JavaScript Object Notation format (JSON) in row-major order
http://www.bom.gov.au/fwo/IDD60801/IDD60801.94120.json

Data quality

Most of these data are generated automatically and are frequently updated. Quality checks on data are not normally performed. It is possible for incorrect values to appear. Refer to information at About Latest Weather Observations and please check the disclaimer before using these data.